Time;durP1;ratioP1;P1;durP2;ratioP2;P2;SDS_P1;SDS_P2;PMS_P1;PMS_P2;Temp;Humidity;BMP_temperature;BMP_pressure;BME280_temperature;BME280_humidity;BME280_pressure;Samples;Min_cycle;Max_cycle;Signal;HPM_P1;HPM_P2
2022/04/28 00:00:19;;;;;;;9.23;5.67;;;7.20;99.90;;;;;;5011912;28;20234;-60
2022/04/28 00:02:46;;;;;;;11.90;6.20;;;7.20;99.90;;;;;;5011792;28;20301;-57
2022/04/28 00:05:13;;;;;;;8.97;5.30;;;7.20;99.90;;;;;;5012104;28;20261;-60
2022/04/28 00:07:40;;;;;;;13.90;6.87;;;7.20;99.90;;;;;;5011750;28;20207;-60
2022/04/28 00:10:10;;;;;;;9.07;5.80;;;7.10;99.90;;;;;;5011648;28;20708;-61
2022/04/28 00:12:37;;;;;;;10.30;6.47;;;7.00;99.90;;;;;;5011937;28;20245;-61
2022/04/28 00:15:05;;;;;;;10.30;6.00;;;6.90;99.90;;;;;;5011581;28;20310;-61
2022/04/28 00:17:31;;;;;;;11.60;6.93;;;6.90;99.90;;;;;;5011732;28;20206;-60
2022/04/28 00:19:59;;;;;;;10.43;6.43;;;6.90;99.90;;;;;;5011655;28;20646;-61
2022/04/28 00:22:26;;;;;;;10.93;6.00;;;6.90;99.90;;;;;;5011897;28;20208;-61
2022/04/28 00:24:52;;;;;;;17.97;6.53;;;6.90;99.90;;;;;;5011742;28;20214;-61
2022/04/28 00:27:20;;;;;;;9.97;6.97;;;6.90;99.90;;;;;;5011396;28;20234;-61
2022/04/28 00:29:47;;;;;;;14.87;7.03;;;6.90;99.90;;;;;;5011466;28;20245;-61
2022/04/28 00:32:14;;;;;;;10.77;7.17;;;6.80;99.90;;;;;;5013243;28;20293;-60
2022/04/28 00:34:41;;;;;;;14.00;6.93;;;6.80;1.00;;;;;;5015695;28;20260;-61
2022/04/28 00:37:09;;;;;;;17.77;7.87;;;6.80;1.00;;;;;;5015031;28;20206;-61
2022/04/28 00:39:37;;;;;;;10.50;7.47;;;6.70;1.00;;;;;;5015537;28;20225;-61
2022/04/28 00:42:09;;;;;;;13.20;7.63;;;6.70;1.00;;;;;;5015238;28;20285;-59
2022/04/28 00:44:37;;;;;;;13.80;7.30;;;6.70;1.00;;;;;;5015349;28;20698;-61
2022/04/28 00:47:05;;;;;;;13.63;7.10;;;6.70;1.00;;;;;;5015036;28;20295;-61
2022/04/28 00:52:16;;;;;;;13.93;6.87;;;6.60;1.00;;;;;;5015402;28;20204;-60
2022/04/28 00:54:43;;;;;;;11.87;6.70;;;6.60;1.00;;;;;;5014868;28;20672;-61
2022/04/28 00:57:11;;;;;;;11.33;6.97;;;6.60;1.00;;;;;;5014967;28;20265;-61
2022/04/28 00:59:39;;;;;;;12.20;6.97;;;6.60;1.00;;;;;;5014975;28;20310;-60
2022/04/28 01:02:06;;;;;;;12.20;7.03;;;6.60;1.00;;;;;;5015122;28;20209;-61
2022/04/28 01:04:33;;;;;;;13.87;8.03;;;6.60;1.00;;;;;;5014916;28;20264;-61
2022/04/28 01:07:00;;;;;;;14.47;7.77;;;6.60;1.00;;;;;;5014615;28;20241;-61
2022/04/28 01:09:27;;;;;;;18.87;8.07;;;6.50;1.00;;;;;;5014760;28;20284;-61
2022/04/28 01:11:54;;;;;;;14.00;8.00;;;6.50;1.00;;;;;;5014671;28;20567;-61
2022/04/28 01:14:20;;;;;;;12.13;7.70;;;6.50;1.00;;;;;;5015033;28;20258;-61
2022/04/28 01:16:48;;;;;;;15.03;7.97;;;6.40;1.00;;;;;;5014382;28;20567;-60
2022/04/28 01:19:15;;;;;;;16.47;9.10;;;6.30;1.00;;;;;;5014639;28;20234;-60
2022/04/28 01:21:43;;;;;;;14.33;7.33;;;6.30;12.70;;;;;;5014475;28;20222;-61
2022/04/28 01:24:10;;;;;;;12.87;7.57;;;6.30;26.00;;;;;;5014973;28;20221;-60
2022/04/28 01:26:37;;;;;;;14.03;8.07;;;6.30;17.50;;;;;;5014299;28;20228;-61
2022/04/28 01:29:04;;;;;;;10.70;7.37;;;6.30;8.90;;;;;;5014387;28;20713;-61
2022/04/28 01:31:30;;;;;;;13.90;7.93;;;6.20;67.50;;;;;;5014970;28;20643;-60
2022/04/28 01:33:57;;;;;;;12.00;8.10;;;6.10;99.90;;;;;;5014596;28;20235;-61
2022/04/28 01:36:24;;;;;;;13.87;7.80;;;6.10;99.90;;;;;;5014255;28;20209;-61
2022/04/28 01:38:52;;;;;;;18.13;8.93;;;6.00;99.90;;;;;;5014525;28;20584;-61
2022/04/28 01:41:19;;;;;;;13.67;8.07;;;6.00;99.90;;;;;;5014291;28;20626;-61
2022/04/28 01:43:46;;;;;;;20.03;8.63;;;6.00;99.90;;;;;;5013092;28;20660;-61
2022/04/28 01:46:13;;;;;;;13.73;8.37;;;5.90;99.90;;;;;;5013896;28;20266;-61
2022/04/28 01:48:39;;;;;;;20.57;9.40;;;5.90;99.90;;;;;;5014088;28;20299;-61
2022/04/28 01:56:36;;;;;;;13.57;7.43;;;5.90;99.90;;;;;;5013634;28;20288;-61
2022/04/28 01:59:03;;;;;;;14.67;8.47;;;5.90;99.90;;;;;;5013860;28;20228;-61
2022/04/28 02:01:30;;;;;;;13.53;8.40;;;5.90;99.90;;;;;;5013760;28;20217;-61
2022/04/28 02:03:56;;;;;;;15.60;8.20;;;5.90;99.90;;;;;;5014133;28;20629;-60
2022/04/28 02:06:23;;;;;;;17.23;8.63;;;5.90;99.90;;;;;;5013498;28;20282;-61
2022/04/28 02:08:51;;;;;;;15.50;7.57;;;5.90;99.90;;;;;;5013795;28;20291;-61
2022/04/28 02:11:19;;;;;;;14.63;9.00;;;5.90;99.90;;;;;;5013649;28;20237;-61
2022/04/28 02:13:45;;;;;;;20.67;9.97;;;5.70;99.90;;;;;;5013609;28;20204;-61
2022/04/28 02:16:12;;;;;;;13.20;9.10;;;5.60;1.00;;;;;;5013545;28;20211;-61
2022/04/28 02:18:39;;;;;;;12.47;8.20;;;5.70;1.00;;;;;;5013623;28;20222;-61
2022/04/28 02:21:06;;;;;;;14.23;7.97;;;5.60;1.00;;;;;;5013756;28;20266;-61
2022/04/28 02:23:32;;;;;;;17.50;8.20;;;5.60;1.00;;;;;;5013604;28;20211;-61
2022/04/28 02:25:59;;;;;;;16.67;9.20;;;5.60;1.00;;;;;;5013514;28;20221;-60
2022/04/28 02:28:28;;;;;;;15.90;9.00;;;5.60;1.00;;;;;;5013352;28;20212;-61
2022/04/28 02:30:55;;;;;;;14.47;8.47;;;5.60;1.00;;;;;;5014070;28;20275;-61
2022/04/28 02:33:21;;;;;;;12.67;7.83;;;5.60;1.00;;;;;;5014188;28;20205;-60
2022/04/28 02:35:48;;;;;;;16.23;9.30;;;5.60;1.00;;;;;;5013987;28;20255;-61
2022/04/28 02:38:14;;;;;;;14.73;9.20;;;5.50;1.00;;;;;;5013568;28;20209;-61
2022/04/28 02:40:41;;;;;;;16.63;9.90;;;5.30;99.90;;;;;;5012965;28;20395;-60
2022/04/28 02:43:08;;;;;;;18.50;10.03;;;5.30;99.90;;;;;;5013148;28;20244;-61
2022/04/28 02:45:36;;;;;;;15.63;9.10;;;5.20;1.00;;;;;;5013292;28;20208;-61
2022/04/28 02:48:03;;;;;;;16.17;9.67;;;5.20;99.90;;;;;;5013015;28;20274;-60
2022/04/28 02:50:29;;;;;;;15.33;8.30;;;5.20;99.90;;;;;;5013096;28;20598;-60
2022/04/28 02:52:56;;;;;;;15.07;9.17;;;5.20;99.90;;;;;;5013071;28;20203;-61
2022/04/28 02:55:23;;;;;;;16.23;9.47;;;5.20;99.90;;;;;;5012715;28;20207;-61
2022/04/28 02:57:49;;;;;;;16.37;9.17;;;5.30;99.90;;;;;;5012343;28;20211;-61
2022/04/28 03:00:17;;;;;;;16.63;9.57;;;5.30;38.80;;;;;;5012979;28;20279;-60
2022/04/28 03:02:45;;;;;;;13.87;8.93;;;5.30;1.00;;;;;;5012787;28;20211;-61
2022/04/28 03:05:11;;;;;;;17.83;9.33;;;5.30;1.00;;;;;;5012722;28;20214;-61
2022/04/28 03:13:26;;;;;;;14.80;9.53;;;5.20;1.00;;;;;;5150824;27;20572;-62
2022/04/28 03:15:53;;;;;;;14.60;9.33;;;5.20;1.00;;;;;;5150530;27;20205;-61
2022/04/28 03:18:20;;;;;;;15.97;9.20;;;5.20;1.00;;;;;;5150821;27;20255;-61
2022/04/28 03:20:47;;;;;;;16.90;9.77;;;5.20;1.00;;;;;;5150808;27;20283;-62
2022/04/28 03:23:14;;;;;;;15.37;9.53;;;5.10;1.00;;;;;;5151000;27;20194;-61
2022/04/28 03:25:40;;;;;;;19.07;10.17;;;5.10;1.00;;;;;;5150596;27;20203;-60
2022/04/28 03:28:08;;;;;;;15.87;10.00;;;5.10;1.00;;;;;;5150565;27;20204;-59
2022/04/28 03:30:36;;;;;;;17.90;9.33;;;5.10;1.00;;;;;;5150544;27;20225;-60
2022/04/28 03:33:03;;;;;;;17.47;9.80;;;5.00;1.00;;;;;;5150439;27;20223;-61
2022/04/28 03:35:29;;;;;;;22.37;10.73;;;5.00;42.00;;;;;;5150714;27;20539;-59
2022/04/28 03:37:58;;;;;;;17.63;10.47;;;4.90;99.20;;;;;;5150752;27;20567;-61
2022/04/28 03:40:25;;;;;;;15.93;10.73;;;4.80;99.90;;;;;;5151349;27;20801;-61
2022/04/28 03:42:51;;;;;;;20.97;10.33;;;4.70;99.90;;;;;;5150377;27;20447;-61
2022/04/28 03:45:18;;;;;;;22.40;11.80;;;4.60;99.90;;;;;;5150413;27;20490;-60
2022/04/28 03:47:46;;;;;;;23.67;11.73;;;4.40;99.90;;;;;;5149624;27;20500;-59
2022/04/28 03:50:13;;;;;;;22.33;11.73;;;4.40;99.90;;;;;;5150165;27;20984;-58
2022/04/28 03:52:40;;;;;;;20.90;11.33;;;4.30;1.00;;;;;;5150123;27;20893;-60
2022/04/28 03:55:08;;;;;;;19.43;11.70;;;4.30;99.90;;;;;;5150185;27;20457;-59
2022/04/28 03:57:35;;;;;;;17.87;11.10;;;4.30;99.90;;;;;;5149701;27;20526;-60
2022/04/28 04:00:02;;;;;;;21.17;11.03;;;4.40;99.90;;;;;;5149871;27;20916;-60
2022/04/28 04:02:29;;;;;;;20.60;11.67;;;4.40;99.90;;;;;;5150151;27;20448;-59
2022/04/28 04:04:58;;;;;;;18.43;11.73;;;4.40;99.90;;;;;;5149947;27;20448;-61
2022/04/28 04:07:29;;;;;;;21.83;12.30;;;4.40;99.90;;;;;;5149762;27;20504;-56
2022/04/28 04:09:56;;;;;;;26.80;12.07;;;4.50;99.90;;;;;;5149596;27;20550;-61
2022/04/28 04:12:23;;;;;;;23.90;11.37;;;4.50;99.90;;;;;;5149755;27;20479;-59
2022/04/28 04:14:49;;;;;;;22.03;11.23;;;4.50;97.10;;;;;;5149417;27;20448;-61
2022/04/28 04:17:16;;;;;;;19.43;11.00;;;4.50;22.20;;;;;;5149719;27;20524;-61
2022/04/28 04:19:43;;;;;;;21.83;12.13;;;4.50;1.00;;;;;;5149785;27;20490;-60
2022/04/28 04:22:11;;;;;;;26.77;11.53;;;4.50;1.00;;;;;;5149326;27;20493;-59
2022/04/28 04:24:37;;;;;;;21.03;11.23;;;4.50;1.00;;;;;;5136871;27;20502;-59
2022/04/28 04:27:04;;;;;;;20.57;11.83;;;4.50;1.00;;;;;;5135175;27;20505;-55
2022/04/28 04:29:31;;;;;;;25.63;11.73;;;4.50;11.00;;;;;;5135586;27;20461;-56
2022/04/28 04:34:42;;;;;;;23.97;12.10;;;4.40;99.90;;;;;;5135584;27;20420;-59
2022/04/28 04:37:09;;;;;;;21.20;11.57;;;4.40;99.90;;;;;;5135181;27;20517;-62
2022/04/28 04:39:37;;;;;;;26.77;11.53;;;4.40;99.90;;;;;;5134970;27;20978;-62
2022/04/28 04:42:04;;;;;;;23.13;12.43;;;4.40;1.00;;;;;;5135509;27;20453;-62
2022/04/28 04:44:31;;;;;;;24.27;12.07;;;4.40;1.00;;;;;;5135471;27;20493;-61
2022/04/28 04:46:57;;;;;;;19.63;11.67;;;4.50;1.00;;;;;;5135179;27;20448;-62
2022/04/28 04:49:24;;;;;;;22.20;12.57;;;4.60;99.90;;;;;;5135093;27;20475;-61
2022/04/28 04:51:51;;;;;;;21.97;11.90;;;4.70;99.90;;;;;;5135311;27;20488;-62
2022/04/28 04:54:18;;;;;;;23.53;12.23;;;4.70;99.90;;;;;;5132988;27;20931;-63
2022/04/28 04:56:46;;;;;;;22.07;12.20;;;4.70;99.90;;;;;;5134426;27;20497;-62
2022/04/28 04:59:12;;;;;;;22.30;12.07;;;4.70;99.90;;;;;;5135021;27;20465;-62
2022/04/28 05:01:39;;;;;;;21.37;12.10;;;4.70;99.90;;;;;;5134890;27;20449;-62
2022/04/28 05:04:06;;;;;;;20.33;11.63;;;4.80;99.90;;;;;;5135093;27;20497;-63
2022/04/28 05:06:33;;;;;;;19.10;11.20;;;4.90;99.90;;;;;;5134270;27;20455;-63
2022/04/28 05:09:00;;;;;;;20.93;11.13;;;5.00;99.90;;;;;;5134698;27;20468;-63
2022/04/28 05:11:26;;;;;;;26.47;12.00;;;5.00;99.90;;;;;;5134363;27;21010;-61
2022/04/28 05:13:55;;;;;;;19.47;12.10;;;5.10;69.50;;;;;;5134869;27;20526;-63
2022/04/28 05:16:21;;;;;;;20.30;11.70;;;5.20;1.00;;;;;;5134503;27;20205;-63
2022/04/28 05:18:48;;;;;;;20.03;11.73;;;5.30;1.00;;;;;;5134309;27;20232;-63
2022/04/28 05:21:14;;;;;;;24.97;12.57;;;5.40;99.90;;;;;;5134533;27;20747;-63
2022/04/28 05:23:41;;;;;;;17.43;11.37;;;5.40;99.90;;;;;;5134412;27;20256;-63
2022/04/28 05:26:08;;;;;;;20.87;12.13;;;5.50;99.90;;;;;;5125259;27;20249;-60
2022/04/28 05:28:34;;;;;;;22.70;12.13;;;5.60;99.90;;;;;;5133359;27;20219;-61
2022/04/28 05:31:02;;;;;;;26.30;12.97;;;5.70;99.90;;;;;;5133947;27;20205;-61
2022/04/28 05:33:29;;;;;;;22.90;11.57;;;5.70;99.90;;;;;;5134024;27;20622;-61
2022/04/28 05:35:56;;;;;;;25.07;12.10;;;5.70;1.00;;;;;;5131994;27;20259;-61
2022/04/28 05:38:23;;;;;;;23.87;11.83;;;5.80;99.90;;;;;;5133981;27;20206;-61
2022/04/28 05:40:49;;;;;;;20.53;10.27;;;5.80;99.90;;;;;;5133659;27;20269;-61
2022/04/28 05:46:02;;;;;;;19.47;12.40;;;5.90;99.90;;;;;;5133513;27;20683;-61
2022/04/28 05:48:28;;;;;;;19.73;11.40;;;6.00;99.90;;;;;;5132817;27;20252;-60
2022/04/28 05:50:55;;;;;;;21.90;10.93;;;6.00;67.80;;;;;;5133767;27;20207;-61
2022/04/28 05:53:22;;;;;;;27.30;12.73;;;6.10;1.00;;;;;;5133251;27;20706;-61
2022/04/28 05:55:49;;;;;;;24.60;11.50;;;6.10;1.00;;;;;;5133556;27;20680;-61
2022/04/28 05:58:15;;;;;;;23.40;11.17;;;6.20;1.00;;;;;;5132956;27;20699;-61
2022/04/28 06:00:42;;;;;;;19.40;11.60;;;6.20;1.00;;;;;;5132829;27;20689;-61
2022/04/28 06:03:11;;;;;;;26.50;11.63;;;6.20;1.00;;;;;;5132887;27;20710;-61
2022/04/28 06:05:37;;;;;;;24.13;11.50;;;6.30;1.00;;;;;;5131893;27;20605;-63
2022/04/28 06:08:05;;;;;;;26.93;12.17;;;6.40;99.90;;;;;;5132556;27;20257;-62
2022/04/28 06:10:31;;;;;;;21.70;11.40;;;6.50;99.90;;;;;;5132330;27;20224;-62
2022/04/28 06:12:58;;;;;;;19.63;11.57;;;6.60;99.90;;;;;;5133248;27;20277;-64
2022/04/28 06:15:25;;;;;;;19.43;11.40;;;6.80;99.90;;;;;;5132666;27;20201;-62
2022/04/28 06:17:52;;;;;;;21.80;11.97;;;6.90;99.90;;;;;;5123612;27;20201;-65
2022/04/28 06:20:20;;;;;;;21.50;10.70;;;7.00;1.00;;;;;;5133025;27;20354;-63
2022/04/28 06:22:47;;;;;;;18.50;11.00;;;7.00;1.00;;;;;;5132412;27;20673;-63
2022/04/28 06:25:14;;;;;;;19.53;9.97;;;7.10;1.00;;;;;;5132946;27;20209;-63
2022/04/28 06:27:41;;;;;;;19.30;10.10;;;7.30;99.90;;;;;;5132583;27;20279;-61
2022/04/28 06:30:08;;;;;;;22.13;11.57;;;7.30;99.90;;;;;;5132498;27;20562;-61
2022/04/28 06:32:35;;;;;;;17.70;10.00;;;7.40;99.90;;;;;;5132856;27;20219;-61
2022/04/28 06:35:02;;;;;;;19.73;10.97;;;7.50;99.90;;;;;;5132515;27;20203;-61
2022/04/28 06:37:31;;;;;;;20.97;10.83;;;7.60;99.90;;;;;;5132537;27;20613;-60
2022/04/28 06:39:57;;;;;;;19.53;10.90;;;7.70;59.60;;;;;;5132706;27;20252;-61
2022/04/28 06:42:24;;;;;;;19.53;10.27;;;7.70;41.80;;;;;;5132538;27;20199;-61
2022/04/28 06:44:51;;;;;;;20.20;9.83;;;7.70;1.00;;;;;;5132441;27;20685;-59
2022/04/28 06:47:17;;;;;;;13.50;8.87;;;7.80;1.00;;;;;;5131651;27;20252;-61
2022/04/28 06:49:44;;;;;;;17.20;10.33;;;7.90;1.00;;;;;;5132680;27;20242;-59
2022/04/28 06:52:11;;;;;;;20.07;9.57;;;7.90;1.00;;;;;;5132508;27;20210;-61
2022/04/28 06:54:39;;;;;;;16.73;9.70;;;8.00;1.00;;;;;;5132348;27;20202;-59
2022/04/28 06:57:06;;;;;;;17.87;9.57;;;8.20;1.00;;;;;;5131777;27;20203;-59
2022/04/28 06:59:32;;;;;;;17.50;10.50;;;8.30;1.00;;;;;;5132170;27;20287;-60
2022/04/28 07:01:59;;;;;;;15.73;9.63;;;8.50;1.00;;;;;;5132350;27;20294;-61
2022/04/28 07:04:26;;;;;;;20.17;9.57;;;8.60;1.00;;;;;;5132223;27;20248;-61
2022/04/28 07:06:52;;;;;;;18.03;10.50;;;8.60;99.90;;;;;;5131954;27;20206;-60
2022/04/28 07:09:19;;;;;;;20.77;11.60;;;8.80;1.00;;;;;;5132198;27;20295;-58
2022/04/28 07:11:48;;;;;;;23.07;11.20;;;8.80;99.90;;;;;;5131640;27;20623;-60
2022/04/28 07:14:15;;;;;;;21.07;10.17;;;9.00;1.00;;;;;;5132345;27;20259;-62
2022/04/28 07:16:41;;;;;;;22.53;10.10;;;9.10;99.90;;;;;;5131523;27;20629;-59
2022/04/28 07:19:08;;;;;;;18.43;10.73;;;9.20;99.90;;;;;;5132089;27;20228;-60
2022/04/28 07:21:35;;;;;;;15.37;9.43;;;9.30;99.90;;;;;;5132164;27;20199;-61
2022/04/28 07:24:02;;;;;;;15.90;9.20;;;9.40;99.90;;;;;;5131952;27;20200;-61
2022/04/28 07:26:29;;;;;;;22.30;10.77;;;9.40;99.90;;;;;;5131596;27;20255;-61
2022/04/28 07:28:58;;;;;;;20.37;10.33;;;9.50;99.90;;;;;;5131608;27;20224;-60
2022/04/28 07:31:24;;;;;;;18.23;10.37;;;9.70;99.90;;;;;;5132224;27;20199;-61
2022/04/28 07:33:51;;;;;;;15.77;10.13;;;9.70;99.90;;;;;;5131983;27;20227;-58
2022/04/28 07:36:18;;;;;;;19.63;10.83;;;9.80;99.90;;;;;;5132078;27;20294;-57
2022/04/28 07:38:44;;;;;;;18.90;11.53;;;9.60;99.90;;;;;;5131765;27;20304;-59
2022/04/28 07:41:12;;;;;;;17.50;9.63;;;9.60;99.90;;;;;;5132009;27;20226;-60
2022/04/28 07:43:39;;;;;;;25.50;10.97;;;9.80;99.90;;;;;;5132924;27;20415;-59
2022/04/28 07:46:07;;;;;;;16.33;11.43;;;10.00;99.90;;;;;;5132214;27;20201;-59
2022/04/28 07:48:33;;;;;;;20.73;10.77;;;10.20;99.90;;;;;;5132187;27;20248;-62
2022/04/28 07:51:00;;;;;;;17.30;8.63;;;10.20;99.90;;;;;;5132390;27;20200;-62
2022/04/28 07:53:27;;;;;;;17.90;11.27;;;10.30;99.90;;;;;;5131474;27;20694;-56
2022/04/28 07:56:14;;;;;;;16.90;10.53;;;10.30;99.90;;;;;;5131807;27;20261;-61
2022/04/28 07:58:42;;;;;;;18.90;10.80;;;10.40;99.90;;;;;;5132657;27;20209;-60
2022/04/28 08:01:11;;;;;;;19.80;11.67;;;10.70;99.90;;;;;;5136000;27;20202;-61
2022/04/28 08:03:38;;;;;;;17.60;11.23;;;10.60;99.90;;;;;;5135615;27;20201;-60
2022/04/28 08:06:05;;;;;;;15.77;9.57;;;10.80;99.90;;;;;;5135220;27;20287;-52
2022/04/28 08:08:33;;;;;;;18.13;11.37;;;10.80;99.90;;;;;;5135614;27;20215;-57
2022/04/28 08:11:00;;;;;;;19.03;10.47;;;10.80;99.90;;;;;;5135088;27;20214;-59
2022/04/28 08:13:27;;;;;;;21.03;11.40;;;10.90;99.90;;;;;;5135802;27;20268;-61
2022/04/28 08:15:54;;;;;;;19.90;10.43;;;10.90;99.90;;;;;;5134862;27;20219;-57
2022/04/28 08:18:22;;;;;;;18.30;11.03;;;11.10;99.90;;;;;;5135288;27;20234;-58
2022/04/28 08:20:49;;;;;;;18.17;10.77;;;11.30;99.90;;;;;;5135428;27;20234;-57
2022/04/28 08:23:16;;;;;;;20.70;10.20;;;11.40;99.90;;;;;;5135417;27;20615;-56
2022/04/28 08:25:42;;;;;;;16.67;10.17;;;11.20;99.90;;;;;;5135406;27;20612;-59
2022/04/28 08:28:09;;;;;;;17.03;10.93;;;11.30;99.90;;;;;;5134556;27;20812;-59
2022/04/28 08:30:36;;;;;;;19.77;11.37;;;11.40;99.90;;;;;;5135201;27;20226;-55
2022/04/28 08:33:04;;;;;;;19.13;11.17;;;11.40;99.90;;;;;;5135150;27;20288;-60
2022/04/28 08:35:32;;;;;;;20.60;11.27;;;11.60;99.90;;;;;;5135347;27;20202;-62
2022/04/28 08:37:58;;;;;;;18.30;10.37;;;11.90;99.90;;;;;;5134759;27;20737;-62
2022/04/28 08:40:26;;;;;;;18.47;10.63;;;12.00;99.90;;;;;;5134904;27;20223;-62
2022/04/28 08:42:55;;;;;;;18.37;10.80;;;12.00;99.90;;;;;;5135178;27;20203;-62
2022/04/28 08:45:28;;;;;;;20.00;10.90;;;11.70;99.90;;;;;;5134517;27;20207;-62
2022/04/28 08:47:58;;;;;;;17.37;11.17;;;11.60;99.90;;;;;;5134376;27;20242;-62
2022/04/28 08:50:24;;;;;;;16.87;10.33;;;11.80;99.90;;;;;;5134422;27;20735;-61
2022/04/28 08:52:55;;;;;;;19.80;11.57;;;12.10;99.90;;;;;;5134492;27;20211;-60
2022/04/28 08:55:22;;;;;;;17.50;10.03;;;12.30;99.90;;;;;;5134785;27;20271;-65
2022/04/28 08:57:49;;;;;;;18.30;10.57;;;12.50;99.90;;;;;;5134017;27;20210;-61
2022/04/28 09:00:16;;;;;;;20.13;11.43;;;12.70;99.90;;;;;;5134879;27;20252;-62
2022/04/28 09:02:43;;;;;;;19.23;10.43;;;12.80;99.90;;;;;;5134602;27;20254;-62
2022/04/28 09:05:11;;;;;;;17.70;11.10;;;12.80;99.90;;;;;;5134543;27;20260;-62
2022/04/28 09:07:39;;;;;;;19.13;10.90;;;12.90;99.90;;;;;;5133840;27;20301;-62
2022/04/28 09:10:26;;;;;;;20.40;10.73;;;13.10;99.90;;;;;;5134137;27;20227;-64
2022/04/28 09:14:09;;;;;;;17.20;10.93;;;13.20;99.90;;;;;;5134348;27;20217;-62
2022/04/28 09:15:50;;;;;;;19.17;10.80;;;13.10;99.90;;;;;;5134138;27;20600;-61
2022/04/28 09:18:17;;;;;;;15.43;11.60;;;13.10;99.90;;;;;;5133927;27;20568;-61
2022/04/28 09:20:44;;;;;;;18.03;11.07;;;12.90;99.90;;;;;;5133733;27;20879;-59
2022/04/28 09:23:12;;;;;;;19.10;11.00;;;12.80;99.90;;;;;;5134055;27;20265;-61
2022/04/28 09:25:42;;;;;;;20.87;11.67;;;13.10;99.90;;;;;;5134553;27;20206;-61
2022/04/28 09:28:10;;;;;;;18.90;11.77;;;13.00;99.90;;;;;;5133446;27;20326;-60
2022/04/28 09:30:42;;;;;;;29.00;9.93;;;13.00;99.90;;;;;;5133838;27;20680;-59
2022/04/28 09:33:10;;;;;;;18.57;11.07;;;13.10;99.90;;;;;;5133810;27;20209;-60
2022/04/28 09:35:43;;;;;;;17.83;11.37;;;13.20;99.90;;;;;;5133662;27;20250;-60
2022/04/28 09:38:10;;;;;;;23.70;11.50;;;13.40;99.90;;;;;;5133146;27;20210;-58
2022/04/28 09:43:22;;;;;;;21.73;12.07;;;14.00;99.90;;;;;;5133883;27;20195;-62
2022/04/28 09:45:50;;;;;;;16.73;10.80;;;14.00;99.90;;;;;;5133350;27;20258;-61
2022/04/28 09:48:17;;;;;;;20.67;11.87;;;13.90;99.90;;;;;;5132797;27;20615;-64
2022/04/28 09:50:44;;;;;;;20.27;12.20;;;13.90;99.90;;;;;;5133140;27;20767;-61
2022/04/28 09:53:11;;;;;;;18.63;11.30;;;14.00;99.90;;;;;;5133702;27;20206;-64
2022/04/28 09:55:41;;;;;;;16.20;10.80;;;14.10;99.90;;;;;;5133435;27;20228;-61
2022/04/28 09:58:09;;;;;;;17.27;10.63;;;13.80;99.90;;;;;;5132568;27;20234;-59
2022/04/28 10:00:37;;;;;;;17.93;10.20;;;13.80;99.90;;;;;;5132857;27;20332;-61
2022/04/28 10:03:03;;;;;;;18.60;10.63;;;13.60;99.90;;;;;;5133131;27;20218;-61
2022/04/28 10:05:30;;;;;;;16.80;10.90;;;13.80;99.90;;;;;;5134201;27;20206;-60
2022/04/28 10:07:58;;;;;;;16.77;11.33;;;14.00;99.90;;;;;;5134735;27;20616;-60
2022/04/28 10:10:27;;;;;;;15.03;10.97;;;14.10;99.90;;;;;;5132679;27;20358;-58
2022/04/28 10:12:55;;;;;;;20.10;11.77;;;14.00;99.90;;;;;;5133061;27;20242;-61
2022/04/28 10:15:24;;;;;;;17.03;11.37;;;14.10;99.90;;;;;;5132412;27;20254;-52
2022/04/28 10:17:56;;;;;;;19.80;10.63;;;14.30;99.90;;;;;;5132647;27;20210;-63
2022/04/28 10:20:32;;;;;;;21.53;12.30;;;14.50;99.90;;;;;;5132759;27;20226;-64
2022/04/28 10:23:02;;;;;;;21.97;12.63;;;14.40;99.90;;;;;;5132568;27;20206;-64
2022/04/28 10:34:10;;;;;;;18.93;11.93;;;14.80;99.90;;;;;;5132147;27;20232;-63
2022/04/28 10:36:52;;;;;;;21.20;11.47;;;15.00;99.90;;;;;;5132507;27;20295;-63
2022/04/28 10:39:34;;;;;;;18.20;12.50;;;15.00;99.90;;;;;;5131980;27;20708;-64
2022/04/28 10:42:00;;;;;;;19.07;11.17;;;15.00;99.90;;;;;;5132856;27;20203;-62
2022/04/28 10:44:30;;;;;;;19.17;10.23;;;14.90;99.90;;;;;;5132424;27;20275;-62
2022/04/28 10:46:59;;;;;;;20.23;10.43;;;15.10;99.90;;;;;;5132641;27;20207;-63
2022/04/28 10:49:36;;;;;;;20.37;10.33;;;15.10;99.90;;;;;;5132436;27;20622;-62
2022/04/28 10:52:04;;;;;;;20.13;10.87;;;15.30;99.90;;;;;;5132581;27;20199;-63
2022/04/28 10:54:43;;;;;;;11.67;7.97;;;15.40;99.90;;;;;;5132389;27;20232;-63
2022/04/28 10:57:13;;;;;;;15.97;9.37;;;15.00;99.90;;;;;;5131824;27;20320;-64
2022/04/28 10:59:41;;;;;;;20.37;10.20;;;14.50;99.90;;;;;;5132565;27;20267;-64
2022/04/28 11:02:41;;;;;;;16.20;10.20;;;14.50;99.90;;;;;;5132119;27;20669;-63
2022/04/28 11:05:38;;;;;;;15.47;8.97;;;14.80;99.90;;;;;;5132636;27;20179;-64
2022/04/28 11:08:05;;;;;;;16.60;9.37;;;14.80;99.90;;;;;;5132026;27;20183;-64
2022/04/28 11:10:32;;;;;;;13.50;8.83;;;14.90;99.90;;;;;;5132573;27;20268;-63
2022/04/28 11:13:09;;;;;;;14.17;9.50;;;15.10;99.90;;;;;;5132345;27;20267;-63
2022/04/28 11:15:37;;;;;;;15.13;9.23;;;15.10;99.90;;;;;;5131702;27;20283;-62
2022/04/28 11:18:04;;;;;;;17.43;10.33;;;15.00;99.90;;;;;;5132533;27;20685;-64
2022/04/28 11:20:34;;;;;;;13.97;8.90;;;15.20;99.90;;;;;;5132360;27;20223;-64
2022/04/28 11:23:02;;;;;;;14.33;9.30;;;15.10;99.90;;;;;;5132485;27;20252;-64
2022/04/28 11:25:28;;;;;;;16.07;9.90;;;15.10;99.90;;;;;;5132068;27;20689;-64
2022/04/28 11:27:56;;;;;;;14.30;9.80;;;15.10;99.90;;;;;;5131301;27;20734;-64
2022/04/28 11:30:25;;;;;;;14.10;9.17;;;15.40;99.90;;;;;;5132353;27;20238;-64
2022/04/28 11:32:57;;;;;;;18.50;9.37;;;15.40;99.90;;;;;;5131675;27;20285;-65
2022/04/28 11:35:29;;;;;;;16.50;10.17;;;15.50;99.90;;;;;;5136431;27;20222;-62
2022/04/28 11:37:58;;;;;;;20.70;10.30;;;15.30;99.90;;;;;;5135842;27;20734;-62
2022/04/28 11:40:25;;;;;;;12.47;8.93;;;15.30;99.90;;;;;;5136422;27;20715;-63
2022/04/28 11:42:56;;;;;;;15.13;9.87;;;15.40;99.90;;;;;;5137146;27;20298;-62
2022/04/28 11:45:23;;;;;;;19.53;10.57;;;15.70;99.90;;;;;;5138300;27;20289;-62
2022/04/28 11:47:53;;;;;;;15.60;10.07;;;15.90;99.90;;;;;;5136263;27;20263;-61
2022/04/28 11:50:21;;;;;;;15.77;9.60;;;15.90;99.90;;;;;;5135754;27;20223;-62
2022/04/28 11:53:00;;;;;;;14.47;10.13;;;15.90;99.90;;;;;;5136004;27;20267;-62
2022/04/28 11:55:30;;;;;;;17.77;9.60;;;16.00;99.90;;;;;;5135614;27;20223;-62
2022/04/28 11:57:57;;;;;;;16.73;10.57;;;16.10;99.90;;;;;;5135535;27;20642;-61
2022/04/28 12:00:27;;;;;;;14.43;9.93;;;15.90;99.90;;;;;;5136062;27;20726;-61
2022/04/28 12:02:55;;;;;;;16.70;10.00;;;15.70;99.90;;;;;;5135507;27;20219;-63
2022/04/28 12:05:24;;;;;;;17.70;10.13;;;15.90;99.90;;;;;;5135876;27;20209;-60
2022/04/28 12:07:54;;;;;;;15.83;9.93;;;16.20;99.90;;;;;;5134815;27;20591;-61
2022/04/28 12:16:07;;;;;;;15.23;9.63;;;15.80;99.90;;;;;;5135087;27;20271;-59
2022/04/28 12:21:21;;;;;;;15.57;9.67;;;16.10;99.90;;;;;;5135500;27;20608;-61
2022/04/28 12:23:50;;;;;;;15.00;10.03;;;15.70;99.90;;;;;;5135449;27;20213;-61
2022/04/28 12:26:20;;;;;;;15.37;9.30;;;15.80;99.90;;;;;;5134324;27;20256;-61
2022/04/28 12:28:48;;;;;;;15.27;10.67;;;16.00;99.90;;;;;;5135264;27;20263;-61
2022/04/28 12:31:16;;;;;;;19.50;10.87;;;16.10;99.90;;;;;;5135267;27;20207;-61
2022/04/28 12:33:46;;;;;;;15.30;9.87;;;16.00;99.90;;;;;;5135296;27;20206;-62
2022/04/28 12:36:14;;;;;;;14.57;9.40;;;16.10;99.90;;;;;;5135076;27;20211;-62
2022/04/28 12:38:44;;;;;;;15.13;9.70;;;16.50;99.90;;;;;;5134550;27;20290;-61
2022/04/28 12:41:16;;;;;;;16.27;9.93;;;16.70;99.90;;;;;;5135077;27;20211;-62
2022/04/28 12:43:48;;;;;;;16.30;10.43;;;16.80;99.90;;;;;;5134800;27;20207;-62
2022/04/28 12:46:16;;;;;;;18.20;10.30;;;16.80;99.90;;;;;;5134505;27;20199;-61
2022/04/28 12:48:43;;;;;;;16.00;10.50;;;16.40;99.90;;;;;;5135335;27;20286;-61
2022/04/28 12:51:16;;;;;;;19.63;11.17;;;16.50;99.90;;;;;;5135914;27;20252;-59
2022/04/28 12:53:44;;;;;;;21.63;10.73;;;16.50;99.90;;;;;;5135768;27;20275;-59
2022/04/28 12:56:13;;;;;;;16.80;10.67;;;16.10;99.90;;;;;;5133899;27;20252;-58
2022/04/28 12:58:42;;;;;;;15.30;9.53;;;15.90;99.90;;;;;;5134448;27;20210;-57
2022/04/28 13:01:11;;;;;;;18.40;10.53;;;16.00;99.90;;;;;;5134320;27;20217;-60
2022/04/28 13:03:40;;;;;;;17.00;10.20;;;16.10;99.90;;;;;;5134508;27;20206;-63
2022/04/28 13:06:08;;;;;;;15.57;10.07;;;16.30;99.90;;;;;;5134369;27;20202;-59
2022/04/28 13:08:34;;;;;;;13.70;9.83;;;16.40;99.90;;;;;;5133911;27;20211;-63
2022/04/28 13:11:02;;;;;;;16.97;9.57;;;16.60;99.90;;;;;;5134317;27;20198;-61
2022/04/28 13:13:29;;;;;;;15.27;9.67;;;16.80;99.90;;;;;;5133833;27;20234;-59
2022/04/28 13:15:56;;;;;;;14.33;9.80;;;16.90;99.90;;;;;;5133471;27;20237;-62
2022/04/28 13:18:24;;;;;;;13.43;9.73;;;16.70;99.90;;;;;;5134051;27;20226;-59
2022/04/28 13:20:51;;;;;;;17.80;10.27;;;16.80;99.90;;;;;;5134590;27;20232;-57